createdAt,value
2018-04-29T00:00:47.347Z,53.37
2018-04-29T00:01:47.274Z,53.36
2018-04-29T00:02:47.270Z,53.26
2018-04-29T00:03:47.352Z,53.31
2018-04-29T00:04:47.326Z,53.3
2018-04-29T00:05:47.183Z,53.36
2018-04-29T00:06:47.678Z,53.36
2018-04-29T00:07:47.523Z,53.32
2018-04-29T00:08:47.527Z,53.28
2018-04-29T00:09:47.302Z,53.32
2018-04-29T00:10:47.590Z,53.39
2018-04-29T00:11:47.394Z,53.35
2018-04-29T00:12:47.397Z,53.32
2018-04-29T00:13:47.731Z,53.34
2018-04-29T00:14:47.383Z,53.35
2018-04-29T00:15:47.341Z,53.37
2018-04-29T00:16:47.307Z,53.32
2018-04-29T00:17:47.347Z,53.36
2018-04-29T00:18:47.413Z,53.37
2018-04-29T00:19:47.229Z,53.33
2018-04-29T00:20:47.566Z,53.32
2018-04-29T00:21:47.285Z,53.37
2018-04-29T00:22:47.310Z,53.34
2018-04-29T00:23:47.512Z,53.3
2018-04-29T00:24:47.354Z,53.32
2018-04-29T00:25:47.274Z,53.37
2018-04-29T00:26:47.466Z,53.36
2018-04-29T00:27:47.202Z,53.46
2018-04-29T00:28:47.365Z,53.3
2018-04-29T00:29:47.264Z,53.3
2018-04-29T00:30:47.373Z,53.33
2018-04-29T00:31:47.707Z,53.32
2018-04-29T00:32:47.586Z,53.34
2018-04-29T00:33:47.372Z,53.33
2018-04-29T00:34:47.367Z,53.33
2018-04-29T00:35:47.856Z,53.29
2018-04-29T00:36:47.160Z,53.32
2018-04-29T00:37:47.336Z,53.37
2018-04-29T00:38:47.195Z,53.35
2018-04-29T00:39:47.310Z,53.36
2018-04-29T00:40:47.186Z,53.35
2018-04-29T00:41:47.202Z,53.29
2018-04-29T00:42:47.388Z,53.3
2018-04-29T00:43:47.209Z,53.29
2018-04-29T00:44:47.343Z,53.34
2018-04-29T00:45:47.302Z,53.4
2018-04-29T00:46:47.293Z,53.34
2018-04-29T00:47:47.496Z,53.3
2018-04-29T00:48:47.649Z,53.31
2018-04-29T00:49:47.168Z,53.33
2018-04-29T00:50:47.459Z,53.33
2018-04-29T00:51:47.468Z,53.36
2018-04-29T00:52:47.592Z,53.32
2018-04-29T00:53:47.688Z,53.3
2018-04-29T00:54:47.361Z,53.41
2018-04-29T00:55:47.143Z,53.41
2018-04-29T00:56:47.400Z,53.33
2018-04-29T00:57:47.185Z,53.45
2018-04-29T00:58:47.385Z,53.43
2018-04-29T00:59:47.345Z,53.39
2018-04-29T01:00:47.245Z,53.37
2018-04-29T01:01:47.501Z,53.36
2018-04-29T01:02:47.699Z,53.34
2018-04-29T01:03:47.378Z,53.42
2018-04-29T01:04:47.353Z,53.45
2018-04-29T01:05:47.387Z,53.4
2018-04-29T01:06:47.413Z,53.35
2018-04-29T01:07:47.384Z,53.32
2018-04-29T01:08:47.283Z,53.38
2018-04-29T01:09:47.410Z,53.46
2018-04-29T01:10:47.181Z,53.34
2018-04-29T01:11:47.304Z,53.29
2018-04-29T01:12:47.272Z,53.29
2018-04-29T01:13:47.156Z,53.33
2018-04-29T01:14:47.191Z,53.33
2018-04-29T01:15:47.228Z,53.38
2018-04-29T01:16:47.257Z,53.38
2018-04-29T01:17:47.327Z,53.36
2018-04-29T01:18:47.196Z,53.36
2018-04-29T01:19:47.413Z,53.3
2018-04-29T01:20:47.342Z,53.33
2018-04-29T01:21:47.772Z,53.45
2018-04-29T01:22:47.377Z,53.37
2018-04-29T01:23:47.180Z,53.34
2018-04-29T01:24:47.333Z,53.37
2018-04-29T01:25:47.280Z,53.42
2018-04-29T01:26:47.411Z,53.38
2018-04-29T01:27:47.394Z,53.39
2018-04-29T01:28:47.368Z,53.39
2018-04-29T01:29:47.644Z,53.32
2018-04-29T01:30:47.575Z,53.37
2018-04-29T01:31:47.311Z,53.39
2018-04-29T01:32:47.345Z,53.32
2018-04-29T01:33:47.358Z,53.37
2018-04-29T01:34:47.296Z,53.36
2018-04-29T01:35:47.407Z,53.45
2018-04-29T01:36:47.266Z,53.37
2018-04-29T01:37:47.390Z,53.42
2018-04-29T01:38:47.472Z,53.35
2018-04-29T01:39:47.648Z,53.39
2018-04-29T01:40:47.294Z,53.36
2018-04-29T01:41:47.169Z,53.44
2018-04-29T01:42:47.293Z,53.42
2018-04-29T01:43:47.661Z,53.45
2018-04-29T01:44:47.404Z,53.37
2018-04-29T01:45:47.571Z,53.36
2018-04-29T01:46:47.476Z,53.42
2018-04-29T01:47:47.178Z,53.43
2018-04-29T01:48:47.358Z,53.4
2018-04-29T01:49:47.254Z,53.39
2018-04-29T01:50:47.274Z,53.32
2018-04-29T01:51:47.506Z,53.42
2018-04-29T01:52:49.187Z,53.37
2018-04-29T01:53:47.294Z,53.37
2018-04-29T01:54:47.474Z,53.48
2018-04-29T01:55:47.458Z,53.35
2018-04-29T01:56:47.403Z,53.41
2018-04-29T01:57:47.344Z,53.39
2018-04-29T01:58:47.407Z,53.42
2018-04-29T01:59:47.253Z,53.4
2018-04-29T02:00:47.199Z,53.42
2018-04-29T02:01:47.352Z,53.44
2018-04-29T02:02:47.508Z,53.38
2018-04-29T02:03:47.227Z,53.38
2018-04-29T02:04:47.280Z,53.34
2018-04-29T02:05:47.278Z,53.37
2018-04-29T02:06:47.359Z,53.38
2018-04-29T02:07:47.271Z,53.36
2018-04-29T02:08:47.651Z,53.39
2018-04-29T02:09:47.273Z,53.39
2018-04-29T02:10:47.343Z,53.33
2018-04-29T02:11:47.158Z,53.33
2018-04-29T02:12:47.329Z,53.43
2018-04-29T02:13:47.226Z,53.32
2018-04-29T02:14:47.408Z,53.32
2018-04-29T02:15:47.369Z,53.41
2018-04-29T02:16:47.172Z,53.4
2018-04-29T02:17:47.343Z,53.37
2018-04-29T02:18:47.403Z,53.4
2018-04-29T02:19:47.505Z,53.39
2018-04-29T02:20:47.192Z,53.35
2018-04-29T02:21:47.204Z,53.41
2018-04-29T02:22:47.269Z,53.39
2018-04-29T02:23:47.169Z,53.37
2018-04-29T02:24:47.267Z,53.38
2018-04-29T02:25:47.385Z,53.33
2018-04-29T02:26:47.110Z,53.38
2018-04-29T02:27:47.177Z,53.43
2018-04-29T02:28:47.274Z,53.35
2018-04-29T02:29:47.305Z,53.37
2018-04-29T02:30:47.305Z,53.39
2018-04-29T02:31:47.517Z,53.35
2018-04-29T02:32:47.561Z,53.35
2018-04-29T02:33:47.556Z,53.41
2018-04-29T02:34:47.200Z,53.37
2018-04-29T02:35:47.242Z,53.35
2018-04-29T02:36:47.223Z,53.43
2018-04-29T02:37:47.368Z,53.43
2018-04-29T02:38:47.248Z,53.37
2018-04-29T02:39:47.232Z,53.37
2018-04-29T02:40:47.199Z,53.44
2018-04-29T02:41:47.280Z,53.42
2018-04-29T02:42:47.252Z,53.38
2018-04-29T02:43:47.111Z,53.43
2018-04-29T02:44:47.235Z,53.36
2018-04-29T02:45:47.230Z,53.38
2018-04-29T02:46:47.262Z,53.37
2018-04-29T02:47:47.287Z,53.34
2018-04-29T02:48:47.315Z,53.38
2018-04-29T02:49:47.361Z,53.36
2018-04-29T02:50:47.357Z,53.4
2018-04-29T02:51:47.284Z,53.43
2018-04-29T02:52:47.303Z,53.4
2018-04-29T02:53:47.311Z,53.35
2018-04-29T02:54:47.263Z,53.37
2018-04-29T02:55:47.270Z,53.34
2018-04-29T02:56:47.216Z,53.41
2018-04-29T02:57:47.187Z,53.45
2018-04-29T02:58:47.305Z,53.37
2018-04-29T02:59:47.295Z,53.37
2018-04-29T03:00:47.458Z,53.43
2018-04-29T03:01:47.198Z,53.41
2018-04-29T03:02:47.202Z,53.36
2018-04-29T03:03:47.330Z,53.36
2018-04-29T03:04:47.165Z,53.43
2018-04-29T03:05:47.356Z,53.28
2018-04-29T03:06:47.344Z,53.38
2018-04-29T03:07:47.336Z,53.32
2018-04-29T03:08:47.180Z,53.34
2018-04-29T03:09:47.238Z,53.4
2018-04-29T03:10:47.387Z,53.38
2018-04-29T03:11:47.363Z,53.38
2018-04-29T03:12:47.162Z,53.37
2018-04-29T03:13:47.473Z,53.41
2018-04-29T03:14:47.308Z,53.32
2018-04-29T03:15:47.559Z,53.38
2018-04-29T03:16:47.272Z,53.34
2018-04-29T03:17:47.315Z,53.37
2018-04-29T03:18:47.417Z,53.38
2018-04-29T03:19:47.342Z,53.36
2018-04-29T03:20:47.546Z,53.34
2018-04-29T03:21:47.289Z,53.4
2018-04-29T03:22:47.187Z,53.41
2018-04-29T03:23:47.344Z,53.37
2018-04-29T03:24:47.381Z,53.39
2018-04-29T03:25:47.250Z,53.41
2018-04-29T03:26:47.299Z,53.45
2018-04-29T03:27:47.312Z,53.48
2018-04-29T03:28:47.227Z,53.42
2018-04-29T03:29:47.183Z,53.35
2018-04-29T03:30:47.218Z,53.4
2018-04-29T03:31:47.208Z,53.41
2018-04-29T03:32:47.235Z,53.37
2018-04-29T03:33:47.257Z,53.46
2018-04-29T03:34:47.274Z,53.44
2018-04-29T03:35:47.479Z,53.32
2018-04-29T03:36:47.493Z,53.38
2018-04-29T03:37:47.330Z,53.42
2018-04-29T03:38:47.186Z,53.38
2018-04-29T03:39:47.191Z,53.39
2018-04-29T03:41:11.110Z,53.41
2018-04-29T03:41:47.363Z,53.36
2018-04-29T03:42:47.803Z,53.44
2018-04-29T03:43:47.101Z,53.41
2018-04-29T03:44:47.263Z,53.39
2018-04-29T03:45:47.210Z,53.5
2018-04-29T03:46:47.226Z,53.41
2018-04-29T03:47:47.383Z,53.37
2018-04-29T03:48:47.208Z,53.43
2018-04-29T03:49:47.232Z,53.39
2018-04-29T03:50:47.236Z,53.38
2018-04-29T03:51:47.160Z,53.4
2018-04-29T03:52:47.127Z,53.46
2018-04-29T03:53:47.238Z,53.37
2018-04-29T03:54:47.331Z,53.4
2018-04-29T03:55:47.207Z,53.45
2018-04-29T03:56:47.345Z,53.37
2018-04-29T03:57:47.110Z,53.39
2018-04-29T03:58:47.388Z,53.38
2018-04-29T03:59:47.214Z,53.43
2018-04-29T04:00:47.309Z,53.47
2018-04-29T04:01:51.971Z,53.38
2018-04-29T04:02:48.281Z,53.4
2018-04-29T04:03:47.520Z,53.44
2018-04-29T04:04:47.193Z,53.42
2018-04-29T04:05:47.243Z,53.43
2018-04-29T04:06:47.230Z,53.4
2018-04-29T04:07:47.221Z,53.35
2018-04-29T04:08:47.582Z,53.43
2018-04-29T04:09:48.098Z,53.41
2018-04-29T04:10:47.311Z,53.43
2018-04-29T04:11:47.174Z,53.44
2018-04-29T04:12:47.136Z,53.45
2018-04-29T04:13:47.193Z,53.46
2018-04-29T04:14:47.227Z,53.42
2018-04-29T04:15:47.318Z,53.51
2018-04-29T04:16:47.303Z,53.47
2018-04-29T04:17:47.159Z,53.4
2018-04-29T04:18:47.117Z,53.44
2018-04-29T04:19:47.118Z,53.39
2018-04-29T04:20:47.378Z,53.43
2018-04-29T04:21:47.196Z,53.41
2018-04-29T04:22:47.362Z,53.45
2018-04-29T04:23:48.119Z,53.41
2018-04-29T04:24:47.217Z,53.44
2018-04-29T04:25:47.358Z,53.38
2018-04-29T04:26:47.136Z,53.35
2018-04-29T04:27:47.282Z,53.37
2018-04-29T04:28:47.392Z,53.37
2018-04-29T04:29:47.278Z,53.39
2018-04-29T04:30:47.197Z,53.37
2018-04-29T04:31:47.269Z,53.34
2018-04-29T04:32:47.262Z,53.42
2018-04-29T04:33:47.439Z,53.43
2018-04-29T04:34:47.283Z,53.34
2018-04-29T04:35:47.173Z,53.33
2018-04-29T04:36:47.112Z,53.35
2018-04-29T04:37:47.067Z,53.35
2018-04-29T04:38:47.365Z,53.34
2018-04-29T04:39:47.132Z,53.37
2018-04-29T04:40:47.484Z,53.38
2018-04-29T04:41:47.183Z,53.31
2018-04-29T04:42:47.557Z,53.35
2018-04-29T04:43:47.167Z,53.35
2018-04-29T04:44:47.275Z,53.43
2018-04-29T04:45:47.482Z,53.43
2018-04-29T04:46:47.226Z,53.44
2018-04-29T04:47:47.232Z,53.34
2018-04-29T04:48:47.116Z,53.35
2018-04-29T04:49:47.424Z,53.31
2018-04-29T04:50:47.360Z,53.33
2018-04-29T04:51:47.415Z,53.37
2018-04-29T04:52:47.135Z,53.36
2018-04-29T04:53:47.150Z,53.33
2018-04-29T04:54:47.242Z,53.35
2018-04-29T04:55:47.454Z,53.39
2018-04-29T04:56:47.206Z,53.35
2018-04-29T04:57:47.359Z,53.36
2018-04-29T04:58:47.578Z,53.34
2018-04-29T04:59:47.143Z,53.31
2018-04-29T05:00:47.187Z,53.33
2018-04-29T05:01:47.076Z,53.37
2018-04-29T05:02:47.233Z,53.29
2018-04-29T05:03:47.251Z,53.32
2018-04-29T05:04:47.106Z,53.37
2018-04-29T05:05:47.203Z,53.3
2018-04-29T05:06:47.332Z,53.34
2018-04-29T05:07:47.126Z,53.3
2018-04-29T05:08:47.143Z,53.34
2018-04-29T05:09:47.413Z,53.33
2018-04-29T05:10:47.232Z,53.37
2018-04-29T05:11:47.313Z,53.32
2018-04-29T05:12:47.161Z,53.34
2018-04-29T05:13:48.408Z,53.34
2018-04-29T05:14:47.353Z,53.28
2018-04-29T05:15:47.117Z,53.34
2018-04-29T05:16:47.340Z,53.31
2018-04-29T05:17:47.552Z,53.32
2018-04-29T05:18:47.145Z,53.36
2018-04-29T05:19:47.267Z,53.36
2018-04-29T05:20:47.204Z,53.34
2018-04-29T05:21:47.610Z,53.35
2018-04-29T05:22:47.314Z,53.34
2018-04-29T05:23:47.070Z,53.3
2018-04-29T05:24:47.173Z,53.39
2018-04-29T05:25:47.108Z,53.34
2018-04-29T05:26:47.212Z,53.32
2018-04-29T05:27:47.172Z,53.34
2018-04-29T05:28:47.384Z,53.34
2018-04-29T05:29:47.273Z,53.3
2018-04-29T05:30:47.412Z,53.31
2018-04-29T05:31:47.631Z,53.32
2018-04-29T05:32:47.237Z,53.31
2018-04-29T05:33:47.159Z,53.35
2018-04-29T05:34:47.148Z,53.33
2018-04-29T05:35:47.210Z,53.28
2018-04-29T05:36:47.324Z,53.33
2018-04-29T05:37:47.193Z,53.39
2018-04-29T05:38:47.258Z,53.38
2018-04-29T05:39:47.136Z,53.37
2018-04-29T05:40:47.317Z,53.32
2018-04-29T05:41:47.426Z,53.34
2018-04-29T05:42:47.143Z,53.4
2018-04-29T05:43:47.107Z,53.3
2018-04-29T05:44:47.221Z,53.41
2018-04-29T05:45:47.313Z,53.39
2018-04-29T05:46:47.607Z,53.42
2018-04-29T05:47:47.315Z,53.41
2018-04-29T05:48:47.122Z,53.5
2018-04-29T05:49:47.825Z,53.5
2018-04-29T05:50:47.321Z,53.45
2018-04-29T05:51:47.133Z,53.48
2018-04-29T05:52:47.098Z,53.53
2018-04-29T05:53:47.108Z,53.45
2018-04-29T05:54:47.248Z,53.63
2018-04-29T05:55:47.219Z,53.52
2018-04-29T05:56:47.189Z,53.48
2018-04-29T05:57:47.211Z,53.53
2018-04-29T05:58:47.295Z,53.53
2018-04-29T05:59:47.101Z,53.54
2018-04-29T06:00:47.294Z,53.5
2018-04-29T06:01:47.353Z,53.5
2018-04-29T06:02:47.345Z,53.55
2018-04-29T06:03:47.322Z,53.54
2018-04-29T06:04:47.302Z,53.45
2018-04-29T06:05:47.156Z,53.49
2018-04-29T06:06:48.167Z,53.5
2018-04-29T06:07:47.291Z,53.49
2018-04-29T06:08:47.221Z,53.51
2018-04-29T06:09:47.220Z,53.52
2018-04-29T06:10:47.209Z,53.48
2018-04-29T06:11:47.151Z,53.54
2018-04-29T06:12:47.117Z,53.49
2018-04-29T06:13:47.197Z,53.54
2018-04-29T06:14:47.399Z,53.49
2018-04-29T06:15:47.303Z,53.51
2018-04-29T06:16:47.317Z,53.48
2018-04-29T06:17:47.180Z,53.48
2018-04-29T06:18:47.349Z,53.59
2018-04-29T06:19:47.503Z,53.51
2018-04-29T06:20:47.522Z,53.45
2018-04-29T06:21:47.174Z,53.52
2018-04-29T06:22:47.299Z,53.54
2018-04-29T06:23:47.114Z,53.55
2018-04-29T06:24:47.261Z,53.55
2018-04-29T06:25:47.352Z,53.49
2018-04-29T06:26:47.244Z,53.55
2018-04-29T06:27:47.264Z,53.64
2018-04-29T06:28:47.137Z,53.48
2018-04-29T06:29:47.214Z,53.48
2018-04-29T06:30:47.297Z,53.56
2018-04-29T06:31:47.104Z,53.49
2018-04-29T06:32:47.252Z,53.56
2018-04-29T06:33:47.395Z,53.54
2018-04-29T06:34:47.407Z,53.56
2018-04-29T06:35:47.316Z,53.52
2018-04-29T06:36:47.534Z,53.53
2018-04-29T06:37:47.259Z,53.52
2018-04-29T06:38:47.907Z,53.49
2018-04-29T06:39:47.110Z,53.53
2018-04-29T06:40:47.315Z,53.46
2018-04-29T06:41:47.216Z,53.5
2018-04-29T06:42:47.244Z,53.53
2018-04-29T06:43:47.647Z,53.56
2018-04-29T06:44:47.141Z,53.59
2018-04-29T06:45:47.174Z,53.59
2018-04-29T06:46:47.936Z,53.56
2018-04-29T06:47:47.181Z,53.5
2018-04-29T06:48:47.240Z,53.56
2018-04-29T06:49:47.035Z,53.53
2018-04-29T06:50:47.054Z,53.56
2018-04-29T06:51:47.209Z,53.54
2018-04-29T06:52:47.210Z,53.52
2018-04-29T06:53:47.191Z,53.47
2018-04-29T06:54:47.900Z,53.45
2018-04-29T06:55:47.542Z,53.45
2018-04-29T06:56:47.152Z,53.43
2018-04-29T06:57:47.313Z,53.5
2018-04-29T06:58:47.062Z,53.48
2018-04-29T06:59:47.238Z,53.47
2018-04-29T07:00:48.100Z,53.5
2018-04-29T07:01:47.329Z,53.49
2018-04-29T07:02:47.297Z,53.49
2018-04-29T07:03:47.304Z,53.53
2018-04-29T07:04:47.906Z,53.54
2018-04-29T07:05:47.140Z,53.49
2018-04-29T07:06:47.166Z,53.57
2018-04-29T07:07:47.382Z,53.59
2018-04-29T07:08:47.085Z,53.47
2018-04-29T07:09:47.204Z,53.48
2018-04-29T07:10:47.153Z,53.57
2018-04-29T07:11:47.554Z,53.46
2018-04-29T07:12:47.224Z,53.57
2018-04-29T07:13:47.070Z,53.48
2018-04-29T07:14:47.268Z,53.51
2018-04-29T07:15:47.093Z,53.51
2018-04-29T07:16:47.155Z,53.52
2018-04-29T07:17:47.347Z,53.52
2018-04-29T07:18:47.482Z,53.55
2018-04-29T07:19:47.126Z,53.53
2018-04-29T07:20:47.285Z,53.46
2018-04-29T07:21:47.322Z,53.48
2018-04-29T07:22:47.208Z,53.44
2018-04-29T07:23:47.222Z,53.43
2018-04-29T07:24:47.273Z,53.43
2018-04-29T07:25:47.287Z,53.51
2018-04-29T07:26:47.045Z,53.52
2018-04-29T07:27:47.147Z,53.6
2018-04-29T07:28:47.944Z,53.46
2018-04-29T07:29:47.455Z,53.5
2018-04-29T07:30:47.263Z,53.59
2018-04-29T07:31:47.216Z,53.55
2018-04-29T07:32:47.358Z,53.54
2018-04-29T07:33:47.188Z,53.65
2018-04-29T07:34:47.163Z,53.73
2018-04-29T07:35:47.327Z,53.47
2018-04-29T07:36:47.193Z,53.61
2018-04-29T07:37:47.070Z,53.59
2018-04-29T07:38:47.214Z,53.52
2018-04-29T07:39:47.558Z,53.62
2018-04-29T07:40:47.355Z,53.58
2018-04-29T07:41:47.078Z,53.58
2018-04-29T07:42:47.080Z,53.56
2018-04-29T07:43:47.405Z,53.61
2018-04-29T07:44:47.217Z,53.51
2018-04-29T07:45:47.080Z,53.76
2018-04-29T07:46:47.168Z,53.58
2018-04-29T07:47:47.046Z,53.52
2018-04-29T07:48:47.566Z,53.55
2018-04-29T07:49:47.195Z,53.55
2018-04-29T07:50:47.345Z,53.59
2018-04-29T07:51:47.225Z,53.64
2018-04-29T07:52:47.249Z,53.73
2018-04-29T07:53:47.325Z,53.54
2018-04-29T07:54:47.840Z,53.7
2018-04-29T07:55:47.407Z,53.69
2018-04-29T07:56:47.306Z,53.64
2018-04-29T07:57:47.336Z,53.66
2018-04-29T07:58:47.360Z,53.58
2018-04-29T07:59:47.579Z,53.49
2018-04-29T08:00:48.136Z,53.61
2018-04-29T08:01:47.049Z,53.52
2018-04-29T08:02:47.214Z,53.48
2018-04-29T08:03:47.071Z,53.55
2018-04-29T08:04:47.463Z,53.51
2018-04-29T08:05:47.140Z,53.53
2018-04-29T08:06:47.834Z,53.56
2018-04-29T08:07:47.427Z,53.71
2018-04-29T08:08:47.183Z,53.59
2018-04-29T08:09:47.185Z,53.56
2018-04-29T08:10:47.224Z,53.55
2018-04-29T08:11:47.317Z,53.47
2018-04-29T08:12:47.220Z,53.59
2018-04-29T08:13:47.265Z,53.57
2018-04-29T08:14:47.129Z,53.57
2018-04-29T08:15:47.770Z,53.62
2018-04-29T08:16:47.194Z,53.64
2018-04-29T08:17:47.119Z,53.57
2018-04-29T08:18:47.292Z,53.83
2018-04-29T08:19:47.176Z,53.82
2018-04-29T08:20:47.176Z,53.98
2018-04-29T08:21:47.294Z,54.14
2018-04-29T08:22:47.839Z,53.96
2018-04-29T08:23:47.114Z,54.13
2018-04-29T08:24:47.067Z,54.25
2018-04-29T08:25:47.118Z,54.31
2018-04-29T08:26:47.150Z,54.14
2018-04-29T08:27:47.216Z,54
2018-04-29T08:28:47.084Z,54.23
2018-04-29T08:29:47.225Z,54.04
2018-04-29T08:30:47.242Z,54.16
2018-04-29T08:31:47.081Z,54.35
2018-04-29T08:32:47.136Z,54.37
2018-04-29T08:33:47.129Z,54.25
2018-04-29T08:34:47.258Z,53.91
2018-04-29T08:35:47.214Z,53.86
2018-04-29T08:36:47.016Z,54.04
2018-04-29T08:37:47.546Z,54.05
2018-04-29T08:38:47.180Z,54.12
2018-04-29T08:39:47.244Z,54.16
2018-04-29T08:40:47.257Z,54.27
2018-04-29T08:41:47.591Z,54.17
2018-04-29T08:42:47.259Z,54.27
2018-04-29T08:43:47.636Z,54.27
2018-04-29T08:44:47.165Z,54.06
2018-04-29T08:45:47.113Z,54.06
2018-04-29T08:46:47.137Z,54.11
2018-04-29T08:47:47.091Z,54.06
2018-04-29T08:48:47.323Z,54.14
2018-04-29T08:49:47.050Z,55.29
2018-04-29T08:50:47.066Z,56.45
2018-04-29T08:51:47.000Z,56.46
2018-04-29T08:52:47.130Z,56.53
2018-04-29T08:53:47.147Z,56.32
2018-04-29T08:54:47.200Z,56.26
2018-04-29T08:55:47.112Z,55.93
2018-04-29T08:56:47.119Z,55.98
2018-04-29T08:57:47.229Z,55.8
2018-04-29T08:58:47.296Z,55.85
2018-04-29T08:59:47.371Z,55.66
2018-04-29T09:00:47.071Z,55.53
2018-04-29T09:01:47.084Z,55.62
2018-04-29T09:02:47.018Z,55.54
2018-04-29T09:03:48.258Z,55.52
2018-04-29T09:04:47.001Z,55.45
2018-04-29T09:05:47.293Z,55.63
2018-04-29T09:06:47.293Z,55.49
2018-04-29T09:07:47.280Z,55.56
2018-04-29T09:08:47.397Z,55.59
2018-04-29T09:09:47.278Z,55.71
2018-04-29T09:10:47.074Z,55.04
2018-04-29T09:11:47.592Z,55.08
2018-04-29T09:12:47.194Z,55.18
2018-04-29T09:13:47.087Z,55.24
2018-04-29T09:14:47.250Z,55.2
2018-04-29T09:15:47.279Z,55.26
2018-04-29T09:16:47.675Z,55.2
2018-04-29T09:17:47.272Z,55.21
2018-04-29T09:18:46.999Z,55.17
2018-04-29T09:19:47.344Z,55.16
2018-04-29T09:20:47.015Z,55.07
2018-04-29T09:21:47.120Z,55.26
2018-04-29T09:22:47.135Z,55.19
2018-04-29T09:23:47.059Z,55.13
2018-04-29T09:24:47.250Z,55.13
2018-04-29T09:25:47.095Z,55.3
2018-04-29T09:26:47.127Z,55.31
2018-04-29T09:27:47.133Z,55.31
2018-04-29T09:28:47.169Z,55
2018-04-29T09:29:47.116Z,54.94
2018-04-29T09:30:47.035Z,54.92
2018-04-29T09:31:47.063Z,55.04
2018-04-29T09:32:47.012Z,55.22
2018-04-29T09:33:47.077Z,55.48
2018-04-29T09:34:47.175Z,55.29
2018-04-29T09:35:47.272Z,55.3
2018-04-29T09:36:47.086Z,55.09
2018-04-29T09:37:47.090Z,55.22
2018-04-29T09:38:47.185Z,55.1
2018-04-29T09:39:47.292Z,55.15
2018-04-29T09:40:47.141Z,55.09
2018-04-29T09:41:47.060Z,55.09
2018-04-29T09:42:47.118Z,54.89
2018-04-29T09:43:47.130Z,55.03
2018-04-29T09:44:47.225Z,54.92
2018-04-29T09:45:47.024Z,54.9
2018-04-29T09:46:46.972Z,54.89
2018-04-29T09:47:47.097Z,54.84
2018-04-29T09:48:47.984Z,54.82
2018-04-29T09:49:47.135Z,54.82
2018-04-29T09:50:47.187Z,54.77
2018-04-29T09:51:47.099Z,54.76
2018-04-29T09:52:47.031Z,54.73
2018-04-29T09:53:47.289Z,54.84
2018-04-29T09:54:47.080Z,54.73
2018-04-29T09:55:47.090Z,54.66
2018-04-29T09:56:47.162Z,54.69
2018-04-29T09:57:47.137Z,54.64
2018-04-29T09:58:47.274Z,54.59
2018-04-29T09:59:47.105Z,54.76
2018-04-29T10:00:47.003Z,54.71
2018-04-29T10:01:47.039Z,54.7
2018-04-29T10:02:47.261Z,54.65
2018-04-29T10:03:47.222Z,54.58
2018-04-29T10:04:47.095Z,54.55
2018-04-29T10:05:47.074Z,54.53
2018-04-29T10:06:47.171Z,54.53
2018-04-29T10:07:47.172Z,54.5
2018-04-29T10:08:47.329Z,54.4
2018-04-29T10:09:47.113Z,54.63
2018-04-29T10:10:47.255Z,54.6
2018-04-29T10:11:47.369Z,54.69
2018-04-29T10:12:47.338Z,54.68
2018-04-29T10:13:47.242Z,54.65
2018-04-29T10:14:47.121Z,54.61
2018-04-29T10:15:47.135Z,54.67
2018-04-29T10:16:47.380Z,54.67
2018-04-29T10:17:47.269Z,54.75
2018-04-29T10:18:48.102Z,54.8
2018-04-29T10:19:47.216Z,54.77
2018-04-29T10:20:46.973Z,54.85
2018-04-29T10:21:47.048Z,54.91
2018-04-29T10:22:47.175Z,54.75
2018-04-29T10:23:47.065Z,54.76
2018-04-29T10:24:47.225Z,54.94
2018-04-29T10:25:47.208Z,54.98
2018-04-29T10:26:47.153Z,55.01
2018-04-29T10:27:47.340Z,54.78
2018-04-29T10:29:11.192Z,54.71
2018-04-29T10:29:47.154Z,54.66
2018-04-29T10:30:47.272Z,54.61
2018-04-29T10:31:46.914Z,54.62
2018-04-29T10:32:47.800Z,54.63
2018-04-29T10:33:47.165Z,54.65
2018-04-29T10:34:47.126Z,54.74
2018-04-29T10:35:47.183Z,54.84
2018-04-29T10:36:47.152Z,54.76
2018-04-29T10:37:47.053Z,54.82
2018-04-29T10:38:47.136Z,54.79
2018-04-29T10:39:47.240Z,54.74
2018-04-29T10:40:47.118Z,54.75
2018-04-29T10:41:47.118Z,54.81
2018-04-29T10:42:47.498Z,54.86
2018-04-29T10:43:47.394Z,54.39
2018-04-29T10:44:47.079Z,54.3
2018-04-29T10:45:46.988Z,54.96
2018-04-29T10:46:47.089Z,55.25
2018-04-29T10:47:47.046Z,55.03
2018-04-29T10:48:47.118Z,55.01
2018-04-29T10:49:47.255Z,55.01
2018-04-29T10:50:47.158Z,54.98
2018-04-29T10:51:47.273Z,54.85
2018-04-29T10:52:46.965Z,54.96
2018-04-29T10:53:47.194Z,54.82
2018-04-29T10:54:47.168Z,54.8
2018-04-29T10:55:47.043Z,54.9
2018-04-29T10:56:48.002Z,54.84
2018-04-29T10:57:47.001Z,54.95
2018-04-29T10:58:47.726Z,54.86
2018-04-29T10:59:47.030Z,54.85
2018-04-29T11:00:47.204Z,54.85
2018-04-29T11:01:47.027Z,54.83
2018-04-29T11:02:47.218Z,54.78
2018-04-29T11:03:47.222Z,54.79
2018-04-29T11:04:47.159Z,54.86
2018-04-29T11:05:47.227Z,54.72
2018-04-29T11:06:47.160Z,54.77
2018-04-29T11:07:47.057Z,54.92
2018-04-29T11:08:47.015Z,54.97
2018-04-29T11:09:47.096Z,54.86
2018-04-29T11:10:47.220Z,54.87
2018-04-29T11:11:47.901Z,54.81
2018-04-29T11:12:47.219Z,54.82
2018-04-29T11:13:47.220Z,54.76
2018-04-29T11:14:47.127Z,54.74
2018-04-29T11:15:47.379Z,54.74
2018-04-29T11:16:47.217Z,54.64
2018-04-29T11:17:47.091Z,54.64
2018-04-29T11:18:49.008Z,54.55
2018-04-29T11:19:47.046Z,54.62
2018-04-29T11:20:47.314Z,54.52
2018-04-29T11:21:47.042Z,54.55
2018-04-29T11:22:47.098Z,54.53
2018-04-29T11:24:10.860Z,54.6
2018-04-29T11:24:47.179Z,54.62
2018-04-29T11:25:47.245Z,54.57
2018-04-29T11:26:47.264Z,54.45
2018-04-29T11:27:47.146Z,54.55
2018-04-29T11:28:46.940Z,54.2
2018-04-29T11:29:47.355Z,54.29
2018-04-29T11:30:46.982Z,54.34
2018-04-29T11:31:47.229Z,54.6
2018-04-29T11:32:47.202Z,54.53
2018-04-29T11:33:47.609Z,54.63
2018-04-29T11:34:47.235Z,54.53
2018-04-29T11:35:47.080Z,54.53
2018-04-29T11:36:47.151Z,54.47
2018-04-29T11:37:47.043Z,54.49
2018-04-29T11:38:47.183Z,54.48
2018-04-29T11:39:47.229Z,54.49
2018-04-29T11:40:47.177Z,54.41
2018-04-29T11:41:47.121Z,54.4
2018-04-29T11:42:46.985Z,54.37
2018-04-29T11:43:47.144Z,54.35
2018-04-29T11:44:47.184Z,54.38
2018-04-29T11:45:47.326Z,54.31
2018-04-29T11:46:47.232Z,54.32
2018-04-29T11:47:47.175Z,54.34
2018-04-29T11:48:47.310Z,54.3
2018-04-29T11:49:47.196Z,54.32
2018-04-29T11:50:47.097Z,54.27
2018-04-29T11:51:47.140Z,54.23
2018-04-29T11:52:47.183Z,54.15
2018-04-29T11:53:46.983Z,54.22
2018-04-29T11:54:47.128Z,54.15
2018-04-29T11:55:47.229Z,54.18
2018-04-29T11:56:47.096Z,54.15
2018-04-29T11:57:47.234Z,54.28
2018-04-29T11:58:47.082Z,54.23
2018-04-29T11:59:47.254Z,54.24
2018-04-29T12:00:47.191Z,54.2
2018-04-29T12:01:47.271Z,54.21
2018-04-29T12:02:47.263Z,54.21
2018-04-29T12:03:47.184Z,54.2
2018-04-29T12:04:47.132Z,54.13
2018-04-29T12:05:47.359Z,54.12
2018-04-29T12:06:46.958Z,54.14
2018-04-29T12:07:47.136Z,54.12
2018-04-29T12:08:47.166Z,54.11
2018-04-29T12:09:47.608Z,54.1
2018-04-29T12:10:46.925Z,54.06
2018-04-29T12:11:47.117Z,54.07
2018-04-29T12:12:47.188Z,54.02
2018-04-29T12:13:47.091Z,54.04
2018-04-29T12:14:47.063Z,54.07
2018-04-29T12:15:47.031Z,54.06
2018-04-29T12:16:47.111Z,53.99
2018-04-29T12:17:47.195Z,54.08
2018-04-29T12:18:47.211Z,54.02
2018-04-29T12:19:47.135Z,54
2018-04-29T12:20:47.320Z,54.05
2018-04-29T12:21:47.187Z,54.03
2018-04-29T12:22:47.134Z,54.04
2018-04-29T12:23:47.270Z,54.02
2018-04-29T12:24:47.010Z,54
2018-04-29T12:25:47.070Z,54.16
2018-04-29T12:26:47.028Z,54.24
2018-04-29T12:27:47.478Z,54.15
2018-04-29T12:28:47.205Z,54.11
2018-04-29T12:29:48.596Z,54.07
2018-04-29T12:30:47.148Z,54.13
2018-04-29T12:31:47.202Z,54.13
2018-04-29T12:32:47.519Z,54.28
2018-04-29T12:33:47.426Z,54.27
2018-04-29T12:34:47.362Z,54.28
2018-04-29T12:35:47.150Z,54.22
2018-04-29T12:36:47.147Z,54.33
2018-04-29T12:37:47.336Z,54.34
2018-04-29T12:38:46.970Z,54.28
2018-04-29T12:39:47.576Z,54.27
2018-04-29T12:40:47.028Z,54.37
2018-04-29T12:41:47.043Z,54.45
2018-04-29T12:42:47.364Z,54.42
2018-04-29T12:43:47.153Z,54.43
2018-04-29T12:44:47.083Z,54.36
2018-04-29T12:45:47.103Z,54.42
2018-04-29T12:46:47.405Z,54.35
2018-04-29T12:47:47.262Z,54.17
2018-04-29T12:48:47.084Z,54.2
2018-04-29T12:49:47.160Z,54.26
2018-04-29T12:50:47.187Z,54.38
2018-04-29T12:51:47.072Z,54.59
2018-04-29T12:52:46.977Z,54.45
2018-04-29T12:53:47.346Z,54.46
2018-04-29T12:54:47.035Z,54.43
2018-04-29T12:55:47.003Z,54.44